Saturday, December 20, 2014, 8:06 PM EST

KDYL, Doylestown Airport

Location: Doylestown, PA, United States Lat: 40.333
Local Time: 8:06 PM EST ( 1:06 GMT) Lon: -75.117
Time Zone: US/Eastern Elev: 393 ft

Show me the last for .
Show Decoded

2014-12-20 18:54 METAR KDYL 202354Z AUTO 00000KT 10SM OVC033 M01/M05 A3027 RMK AO2 SLP259
                 T10111050 10000 21017 51008 =
2014-12-20 17:54 METAR KDYL 202254Z AUTO 00000KT 10SM OVC032 M01/M06 A3026 RMK AO2 SLP257
                 T10061056 =
2014-12-20 17:41 METAR KDYL 202241Z AUTO 00000KT 10SM OVC030 M01/M06 A3026 RMK AO2 T10061056 =
2014-12-20 17:12 METAR KDYL 202212Z AUTO 00000KT 10SM OVC029 M01/M06 A3026 RMK AO2 T10061056 =
2014-12-20 16:54 METAR KDYL 202154Z AUTO 00000KT 10SM OVC030 M01/M06 A3026 RMK AO2 SLP255
                 T10061056 =
2014-12-20 15:54 METAR KDYL 202054Z AUTO 00000KT 10SM OVC031 M01/M06 A3025 RMK AO2 SLP250
                 T10061061 53000 =
2014-12-20 14:54 METAR KDYL 201954Z AUTO 03003KT 10SM OVC030 00/M06 A3024 RMK AO2 SLP247
                 T00001061 =
2014-12-20 13:54 METAR KDYL 201854Z AUTO 33003KT 10SM OVC028 00/M06 A3024 RMK AO2 SLP249
                 T00001061 =
2014-12-20 12:54 METAR KDYL 201754Z AUTO 35003KT 10SM OVC029 M01/M06 A3024 RMK AO2 SLP249
                 T10061061 10000 21017 58016 =
2014-12-20 12:30 METAR KDYL 201730Z AUTO 00000KT 10SM OVC030 M01/M06 A3025 RMK AO2 T10061061 =
2014-12-20 11:54 METAR KDYL 201654Z AUTO 02006KT 10SM OVC028 M01/M06 A3025 RMK AO2 SLP252
                 T10061061 =
2014-12-20 10:54 METAR KDYL 201554Z AUTO 00000KT 10SM OVC029 M01/M06 A3029 RMK AO2 SLP265
                 T10061061 =
2014-12-20 09:54 METAR KDYL 201454Z AUTO 35006KT 10SM OVC026 M01/M06 A3029 RMK AO2 SLP267
                 T10111061 50017 =
2014-12-20 08:54 METAR KDYL 201354Z AUTO 00000KT 10SM OVC026 M02/M07 A3029 RMK AO2 SLP267
                 T10171067 =
2014-12-20 07:54 METAR KDYL 201254Z AUTO 36003KT 10SM OVC025 M02/M07 A3026 RMK AO2 SLP256
                 T10171067 =
2014-12-20 06:54 METAR KDYL 201154Z AUTO 01005KT 10SM OVC025 M02/M06 A3024 RMK AO2 SLP249
                 T10171061 11006 21017 51011 =
2014-12-20 05:54 METAR KDYL 201054Z AUTO 35005KT 10SM OVC027 M02/M06 A3024 RMK AO2 SLP249
                 T10171061 =
2014-12-20 04:54 METAR KDYL 200954Z AUTO 01004KT 10SM OVC023 M02/M06 A3023 RMK AO2 SLP245
                 T10171056 =
2014-12-20 03:54 METAR KDYL 200854Z AUTO 35006KT 10SM OVC022 M01/M06 A3021 RMK AO2 SLP237
                 T10111056 52012 =
2014-12-20 02:54 METAR KDYL 200754Z AUTO 36006KT 10SM OVC023 M01/M06 A3020 RMK AO2 SLP234
                 T10111056 =
2014-12-20 01:54 METAR KDYL 200654Z AUTO 35008KT 10SM OVC025 M01/M06 A3018 RMK AO2 SLP227
                 T10111056 =
2014-12-20 00:54 METAR KDYL 200554Z AUTO 01006KT 10SM OVC026 M01/M05 A3017 RMK AO2 SLP225
                 T10061050 11006 21017 50001 =
2014-12-19 23:54 METAR KDYL 200454Z AUTO 33006KT 10SM OVC028 M01/M06 A3018 RMK AO2 SLP226
                 T10061056 400391017 =
2014-12-19 22:54 METAR KDYL 200354Z AUTO 31004KT 10SM OVC029 M01/M06 A3018 RMK AO2 SLP229
                 T10061061 =
2014-12-19 22:03 METAR KDYL 200303Z AUTO 31006KT 10SM OVC030 M01/M06 A3018 RMK AO2 T10111061 =
2014-12-19 21:54 METAR KDYL 200254Z AUTO 32003KT 10SM OVC029 M01/M06 A3017 RMK AO2 SLP224
                 T10111061 53007 =
2014-12-19 21:15 METAR KDYL 200215Z AUTO 33006KT 10SM OVC029 M01/M06 A3017 RMK AO2 T10111061 =
2014-12-19 20:54 METAR KDYL 200154Z AUTO 33007KT 10SM OVC030 M01/M07 A3017 RMK AO2 SLP223
                 T10111067 =
2014-12-19 20:09 METAR KDYL 200109Z AUTO 34007G15KT 10SM SCT029 M01/M07 A3015 RMK AO2 T10111067 =

Support USWX by starting your Amazon purchase here.